EIN1B EIDL-EIKY
Flight info
| Callsign | EIN1B |
|---|---|
| Flight time | 0h 38m |
| Altitude | 24000 |
| Route | SLG DCT CON DCT SHA DCT INRAD |
| Aircraft | A320/M-SDE3FGHIRWY/LB1 |
Departure
| Time | 2026-04-22 09:46 |
|---|---|
| Airport | Donegal Airport (EIDL) |
Arrival
| Time | 2026-04-22 10:24 |
|---|---|
| Airport | Kerry Airport (EIKY) |
| Time | Latitude | Longitude | Altitude | Speed | Heading |
|---|---|---|---|---|---|
| 2026-04-22 09:21 | 55.03849 | -8.34194 | 34 ft | 0 kts | 197° |
| 2026-04-22 09:41 | 55.03850 | -8.34193 | 33 ft | 2 kts | 197° |
| 2026-04-22 09:41 | 55.03869 | -8.34176 | 33 ft | 4 kts | 243° |
| 2026-04-22 09:41 | 55.03870 | -8.34136 | 33 ft | 4 kts | 289° |
| 2026-04-22 09:41 | 55.03867 | -8.34120 | 33 ft | 0 kts | 290° |
| 2026-04-22 09:43 | 55.03870 | -8.34137 | 33 ft | 4 kts | 290° |
| 2026-04-22 09:44 | 55.03883 | -8.34222 | 33 ft | 10 kts | 270° |
| 2026-04-22 09:44 | 55.03878 | -8.34348 | 33 ft | 10 kts | 283° |
| 2026-04-22 09:44 | 55.03870 | -8.34449 | 31 ft | 11 kts | 212° |
| 2026-04-22 09:44 | 55.03804 | -8.34459 | 33 ft | 8 kts | 186° |
| 2026-04-22 09:45 | 55.03807 | -8.34485 | 33 ft | 3 kts | 18° |
| 2026-04-22 09:45 | 55.03816 | -8.34479 | 33 ft | 0 kts | 18° |
| 2026-04-22 09:45 | 55.04093 | -8.34304 | 37 ft | 89 kts | 20° |
| 2026-04-22 09:46 | 55.04890 | -8.33716 | 268 ft | 140 kts | 21° |
| 2026-04-22 09:46 | 55.05450 | -8.33225 | 935 ft | 131 kts | 33° |
| 2026-04-22 09:46 | 55.06583 | -8.32338 | 1989 ft | 142 kts | 49° |
| 2026-04-22 09:46 | 55.07188 | -8.31002 | 2436 ft | 146 kts | 77° |
| 2026-04-22 09:47 | 55.07282 | -8.29189 | 2746 ft | 160 kts | 104° |
| 2026-04-22 09:47 | 55.06974 | -8.27931 | 2896 ft | 176 kts | 125° |
| 2026-04-22 09:47 | 55.05903 | -8.26615 | 3222 ft | 210 kts | 161° |
| 2026-04-22 09:47 | 55.04333 | -8.26704 | 3670 ft | 243 kts | 185° |
| 2026-04-22 09:48 | 55.02659 | -8.27360 | 4415 ft | 255 kts | 189° |
| 2026-04-22 09:48 | 55.00902 | -8.28175 | 5336 ft | 261 kts | 190° |
| 2026-04-22 09:48 | 54.99160 | -8.29008 | 6230 ft | 265 kts | 190° |
| 2026-04-22 09:48 | 54.97370 | -8.29855 | 7169 ft | 268 kts | 189° |
| 2026-04-22 09:49 | 54.95554 | -8.30695 | 8027 ft | 272 kts | 189° |
| 2026-04-22 09:49 | 54.93714 | -8.31532 | 8891 ft | 275 kts | 190° |
| 2026-04-22 09:49 | 54.91850 | -8.32365 | 9765 ft | 278 kts | 190° |
| 2026-04-22 09:49 | 54.89962 | -8.33198 | 10599 ft | 282 kts | 191° |
| 2026-04-22 09:50 | 54.87989 | -8.34058 | 10951 ft | 304 kts | 189° |
| 2026-04-22 09:50 | 54.85858 | -8.34981 | 11197 ft | 327 kts | 190° |
| 2026-04-22 09:50 | 54.83576 | -8.35974 | 11435 ft | 347 kts | 191° |
| 2026-04-22 09:50 | 54.81205 | -8.37020 | 12045 ft | 354 kts | 191° |
| 2026-04-22 09:51 | 54.78802 | -8.38082 | 12773 ft | 358 kts | 190° |
| 2026-04-22 09:51 | 54.76377 | -8.39142 | 13527 ft | 362 kts | 190° |
| 2026-04-22 09:51 | 54.73922 | -8.40211 | 14227 ft | 366 kts | 191° |
| 2026-04-22 09:51 | 54.71441 | -8.41295 | 14848 ft | 369 kts | 191° |
| 2026-04-22 09:52 | 54.68945 | -8.42386 | 15558 ft | 370 kts | 191° |
| 2026-04-22 09:52 | 54.66435 | -8.43478 | 16192 ft | 374 kts | 192° |
| 2026-04-22 09:52 | 54.63896 | -8.44579 | 16788 ft | 378 kts | 193° |
| 2026-04-22 09:52 | 54.61331 | -8.45691 | 17418 ft | 381 kts | 193° |
| 2026-04-22 09:53 | 54.58748 | -8.46811 | 18084 ft | 383 kts | 194° |
| 2026-04-22 09:53 | 54.56150 | -8.47938 | 18651 ft | 387 kts | 194° |
| 2026-04-22 09:53 | 54.53525 | -8.49072 | 19101 ft | 392 kts | 195° |
| 2026-04-22 09:53 | 54.50873 | -8.50210 | 19622 ft | 394 kts | 195° |
| 2026-04-22 09:54 | 54.48210 | -8.51351 | 20156 ft | 396 kts | 196° |
| 2026-04-22 09:54 | 54.45525 | -8.52500 | 20610 ft | 400 kts | 195° |
| 2026-04-22 09:54 | 54.42847 | -8.53646 | 21113 ft | 402 kts | 195° |
| 2026-04-22 09:54 | 54.40131 | -8.54808 | 21665 ft | 403 kts | 195° |
| 2026-04-22 09:55 | 54.37363 | -8.55997 | 22138 ft | 406 kts | 196° |
| 2026-04-22 09:55 | 54.34606 | -8.57177 | 22551 ft | 410 kts | 195° |
| 2026-04-22 09:55 | 54.31833 | -8.58359 | 23052 ft | 411 kts | 195° |
| 2026-04-22 09:55 | 54.29050 | -8.59542 | 23524 ft | 414 kts | 195° |
| 2026-04-22 09:56 | 54.26285 | -8.60990 | 23924 ft | 417 kts | 200° |
| 2026-04-22 09:56 | 54.23534 | -8.62636 | 24258 ft | 419 kts | 200° |
| 2026-04-22 09:56 | 54.20785 | -8.64282 | 24338 ft | 422 kts | 201° |
| 2026-04-22 09:56 | 54.17974 | -8.65963 | 24347 ft | 434 kts | 200° |
| 2026-04-22 09:57 | 54.15110 | -8.67673 | 24355 ft | 438 kts | 199° |
| 2026-04-22 09:57 | 54.12229 | -8.69384 | 24301 ft | 439 kts | 200° |
| 2026-04-22 09:57 | 54.09343 | -8.71096 | 24308 ft | 441 kts | 199° |
| 2026-04-22 09:57 | 54.06485 | -8.72788 | 24299 ft | 439 kts | 200° |
| 2026-04-22 09:58 | 54.03605 | -8.74489 | 24309 ft | 439 kts | 200° |
| 2026-04-22 09:58 | 54.00717 | -8.76189 | 24298 ft | 440 kts | 199° |
| 2026-04-22 09:58 | 53.97826 | -8.77885 | 24301 ft | 439 kts | 199° |
| 2026-04-22 09:58 | 53.94945 | -8.79575 | 24302 ft | 439 kts | 199° |
| 2026-04-22 09:59 | 53.92031 | -8.81169 | 24306 ft | 441 kts | 194° |
| 2026-04-22 09:59 | 53.89005 | -8.82071 | 24312 ft | 441 kts | 185° |
| 2026-04-22 09:59 | 53.85942 | -8.82294 | 24314 ft | 441 kts | 182° |
| 2026-04-22 09:59 | 53.82874 | -8.82448 | 24307 ft | 441 kts | 182° |
| 2026-04-22 10:00 | 53.79805 | -8.82614 | 24301 ft | 441 kts | 182° |
| 2026-04-22 10:00 | 53.76746 | -8.82787 | 24306 ft | 439 kts | 182° |
| 2026-04-22 10:00 | 53.73693 | -8.82960 | 24299 ft | 439 kts | 182° |
| 2026-04-22 10:00 | 53.70637 | -8.83136 | 24286 ft | 439 kts | 182° |
| 2026-04-22 10:01 | 53.67586 | -8.83308 | 24278 ft | 439 kts | 182° |
| 2026-04-22 10:01 | 53.64539 | -8.83477 | 24285 ft | 438 kts | 182° |
| 2026-04-22 10:01 | 53.61491 | -8.83651 | 24271 ft | 438 kts | 182° |
| 2026-04-22 10:01 | 53.58448 | -8.83828 | 24274 ft | 437 kts | 181° |
| 2026-04-22 10:02 | 53.55411 | -8.84000 | 24270 ft | 437 kts | 181° |
| 2026-04-22 10:02 | 53.52376 | -8.84168 | 24268 ft | 436 kts | 181° |
| 2026-04-22 10:02 | 53.49344 | -8.84334 | 24246 ft | 437 kts | 181° |
| 2026-04-22 10:02 | 53.46302 | -8.84501 | 24248 ft | 436 kts | 181° |
| 2026-04-22 10:03 | 53.43276 | -8.84667 | 24262 ft | 435 kts | 181° |
| 2026-04-22 10:03 | 53.40249 | -8.84833 | 24242 ft | 435 kts | 181° |
| 2026-04-22 10:03 | 53.37231 | -8.84999 | 24247 ft | 433 kts | 181° |
| 2026-04-22 10:03 | 53.34228 | -8.85163 | 24244 ft | 431 kts | 181° |
| 2026-04-22 10:04 | 53.31250 | -8.85324 | 24241 ft | 429 kts | 181° |
| 2026-04-22 10:04 | 53.28261 | -8.85486 | 24248 ft | 432 kts | 181° |
| 2026-04-22 10:04 | 53.25255 | -8.85649 | 24250 ft | 431 kts | 182° |
| 2026-04-22 10:04 | 53.22254 | -8.85815 | 24241 ft | 430 kts | 181° |
| 2026-04-22 10:05 | 53.19271 | -8.85983 | 24241 ft | 430 kts | 181° |
| 2026-04-22 10:05 | 53.16276 | -8.86148 | 24238 ft | 433 kts | 181° |
| 2026-04-22 10:05 | 53.13262 | -8.86311 | 24130 ft | 435 kts | 181° |
| 2026-04-22 10:05 | 53.10243 | -8.86474 | 23641 ft | 430 kts | 181° |
| 2026-04-22 10:06 | 53.07259 | -8.86638 | 23089 ft | 428 kts | 181° |
| 2026-04-22 10:06 | 53.04285 | -8.86800 | 22550 ft | 427 kts | 181° |
| 2026-04-22 10:06 | 53.01333 | -8.86959 | 22014 ft | 423 kts | 181° |
| 2026-04-22 10:06 | 52.98420 | -8.87116 | 21495 ft | 416 kts | 181° |
| 2026-04-22 10:07 | 52.95529 | -8.87352 | 20982 ft | 414 kts | 186° |
| 2026-04-22 10:07 | 52.92748 | -8.88592 | 20485 ft | 416 kts | 201° |
| 2026-04-22 10:07 | 52.90276 | -8.91080 | 19987 ft | 419 kts | 214° |
| 2026-04-22 10:07 | 52.87982 | -8.94047 | 19506 ft | 418 kts | 215° |
| 2026-04-22 10:08 | 52.85704 | -8.97025 | 19018 ft | 416 kts | 216° |
| 2026-04-22 10:08 | 52.83441 | -8.99995 | 18551 ft | 414 kts | 215° |
| 2026-04-22 10:08 | 52.81186 | -9.02948 | 18021 ft | 412 kts | 215° |
| 2026-04-22 10:08 | 52.78939 | -9.05876 | 17483 ft | 410 kts | 214° |
| 2026-04-22 10:09 | 52.76701 | -9.08784 | 16986 ft | 408 kts | 214° |
| 2026-04-22 10:09 | 52.74467 | -9.11675 | 16458 ft | 408 kts | 214° |
| 2026-04-22 10:09 | 52.72236 | -9.14557 | 15981 ft | 406 kts | 213° |
| 2026-04-22 10:09 | 52.70017 | -9.17421 | 15472 ft | 404 kts | 213° |
| 2026-04-22 10:10 | 52.67807 | -9.20265 | 14983 ft | 402 kts | 214° |
| 2026-04-22 10:10 | 52.65606 | -9.23094 | 14499 ft | 401 kts | 213° |
| 2026-04-22 10:10 | 52.63410 | -9.25915 | 14024 ft | 400 kts | 212° |
| 2026-04-22 10:10 | 52.61224 | -9.28727 | 13489 ft | 397 kts | 213° |
| 2026-04-22 10:11 | 52.59090 | -9.31471 | 12954 ft | 392 kts | 213° |
| 2026-04-22 10:11 | 52.56930 | -9.34245 | 12439 ft | 386 kts | 212° |
| 2026-04-22 10:11 | 52.54867 | -9.36891 | 12093 ft | 376 kts | 213° |
| 2026-04-22 10:11 | 52.52834 | -9.39497 | 11754 ft | 366 kts | 212° |
| 2026-04-22 10:12 | 52.50852 | -9.42037 | 11427 ft | 357 kts | 212° |
| 2026-04-22 10:12 | 52.48921 | -9.44505 | 11108 ft | 347 kts | 212° |
| 2026-04-22 10:12 | 52.47047 | -9.46899 | 10768 ft | 326 kts | 212° |
| 2026-04-22 10:12 | 52.45333 | -9.49088 | 10473 ft | 308 kts | 211° |
| 2026-04-22 10:13 | 52.43684 | -9.51186 | 10157 ft | 293 kts | 211° |
| 2026-04-22 10:13 | 52.42102 | -9.53189 | 9824 ft | 283 kts | 210° |
| 2026-04-22 10:13 | 52.40552 | -9.55145 | 9473 ft | 280 kts | 210° |
| 2026-04-22 10:13 | 52.39012 | -9.57087 | 9133 ft | 279 kts | 210° |
| 2026-04-22 10:14 | 52.37479 | -9.59021 | 8763 ft | 277 kts | 209° |
| 2026-04-22 10:14 | 52.35956 | -9.60942 | 8382 ft | 275 kts | 209° |
| 2026-04-22 10:14 | 52.34445 | -9.62844 | 7988 ft | 273 kts | 209° |
| 2026-04-22 10:14 | 52.32947 | -9.64730 | 7613 ft | 271 kts | 209° |
| 2026-04-22 10:15 | 52.31457 | -9.66608 | 7240 ft | 267 kts | 208° |
| 2026-04-22 10:15 | 52.30020 | -9.68426 | 6875 ft | 256 kts | 208° |
| 2026-04-22 10:15 | 52.28632 | -9.70187 | 6498 ft | 247 kts | 208° |
| 2026-04-22 10:15 | 52.27295 | -9.71879 | 6102 ft | 240 kts | 207° |
| 2026-04-22 10:16 | 52.25989 | -9.73525 | 5709 ft | 236 kts | 206° |
| 2026-04-22 10:16 | 52.24695 | -9.75147 | 5322 ft | 234 kts | 206° |
| 2026-04-22 10:16 | 52.23408 | -9.76754 | 4938 ft | 232 kts | 206° |
| 2026-04-22 10:16 | 52.22142 | -9.78341 | 4527 ft | 223 kts | 207° |
| 2026-04-22 10:17 | 52.20939 | -9.79858 | 4105 ft | 217 kts | 207° |
| 2026-04-22 10:17 | 52.19718 | -9.81374 | 3779 ft | 223 kts | 205° |
| 2026-04-22 10:17 | 52.18470 | -9.82901 | 3383 ft | 220 kts | 200° |
| 2026-04-22 10:17 | 52.17145 | -9.83850 | 3162 ft | 197 kts | 180° |
| 2026-04-22 10:18 | 52.15870 | -9.84026 | 3149 ft | 173 kts | 164° |
| 2026-04-22 10:18 | 52.14755 | -9.83634 | 3186 ft | 158 kts | 152° |
| 2026-04-22 10:18 | 52.13726 | -9.83056 | 3163 ft | 155 kts | 153° |
| 2026-04-22 10:18 | 52.12747 | -9.82421 | 3157 ft | 146 kts | 139° |
| 2026-04-22 10:19 | 52.12236 | -9.81072 | 3163 ft | 147 kts | 103° |
| 2026-04-22 10:19 | 52.12434 | -9.79377 | 3164 ft | 158 kts | 84° |
| 2026-04-22 10:19 | 52.12783 | -9.77704 | 3104 ft | 159 kts | 83° |
| 2026-04-22 10:19 | 52.13141 | -9.76026 | 2866 ft | 153 kts | 83° |
| 2026-04-22 10:20 | 52.13478 | -9.74466 | 2658 ft | 139 kts | 84° |
| 2026-04-22 10:20 | 52.13788 | -9.73011 | 2481 ft | 134 kts | 82° |
| 2026-04-22 10:20 | 52.14086 | -9.71589 | 2286 ft | 132 kts | 81° |
| 2026-04-22 10:20 | 52.14381 | -9.70178 | 2106 ft | 132 kts | 78° |
| 2026-04-22 10:21 | 52.14677 | -9.68759 | 1921 ft | 133 kts | 77° |
| 2026-04-22 10:21 | 52.14978 | -9.67314 | 1742 ft | 133 kts | 77° |
| 2026-04-22 10:21 | 52.15270 | -9.65925 | 1541 ft | 131 kts | 76° |
| 2026-04-22 10:21 | 52.15564 | -9.64515 | 1358 ft | 130 kts | 77° |
| 2026-04-22 10:22 | 52.15838 | -9.63219 | 1164 ft | 114 kts | 76° |
| 2026-04-22 10:22 | 52.16090 | -9.62000 | 1010 ft | 112 kts | 77° |
| 2026-04-22 10:22 | 52.16340 | -9.60800 | 835 ft | 115 kts | 75° |
| 2026-04-22 10:22 | 52.16601 | -9.59545 | 676 ft | 115 kts | 74° |
| 2026-04-22 10:23 | 52.16854 | -9.58262 | 541 ft | 118 kts | 74° |
| 2026-04-22 10:23 | 52.17105 | -9.57005 | 466 ft | 113 kts | 73° |
| 2026-04-22 10:23 | 52.17375 | -9.55778 | 370 ft | 114 kts | 73° |
| 2026-04-22 10:23 | 52.17628 | -9.54571 | 243 ft | 109 kts | 72° |
| 2026-04-22 10:24 | 52.17878 | -9.53403 | 126 ft | 109 kts | 73° |
| 2026-04-22 10:24 | 52.18096 | -9.52351 | 104 ft | 84 kts | 69° |
| 2026-04-22 10:24 | 52.18210 | -9.51796 | 108 ft | 35 kts | 71° |
| 2026-04-22 10:24 | 52.18260 | -9.51630 | 112 ft | 9 kts | 87° |
| 2026-04-22 10:25 | 52.18235 | -9.51661 | 111 ft | 12 kts | 257° |
| 2026-04-22 10:25 | 52.18203 | -9.51837 | 108 ft | 19 kts | 252° |
| 2026-04-22 10:25 | 52.18153 | -9.52064 | 105 ft | 24 kts | 255° |
| 2026-04-22 10:25 | 52.18095 | -9.52350 | 101 ft | 28 kts | 251° |
| 2026-04-22 10:26 | 52.18028 | -9.52664 | 100 ft | 30 kts | 251° |
| 2026-04-22 10:26 | 52.17962 | -9.52982 | 97 ft | 30 kts | 251° |
| 2026-04-22 10:26 | 52.17893 | -9.53308 | 94 ft | 31 kts | 250° |
| 2026-04-22 10:26 | 52.17869 | -9.53542 | 92 ft | 17 kts | 309° |
| 2026-04-22 10:27 | 52.17928 | -9.53589 | 93 ft | 7 kts | 341° |
| 2026-04-22 10:27 | 52.17973 | -9.53614 | 92 ft | 6 kts | 341° |
| 2026-04-22 10:27 | 52.18000 | -9.53619 | 93 ft | 6 kts | 5° |
| 2026-04-22 10:27 | 52.18045 | -9.53586 | 92 ft | 8 kts | 19° |
| 2026-04-22 10:28 | 52.18079 | -9.53570 | 94 ft | 5 kts | 11° |
| 2026-04-22 10:28 | 52.18103 | -9.53582 | 92 ft | 3 kts | 334° |
| 2026-04-22 10:28 | 52.18108 | -9.53585 | 92 ft | 0 kts | 332° |